sensor_id;sensor_type;location;lat;lon;timestamp;P1;durP1;ratioP1;P2;durP2;ratioP2
52554;SDS011;38455;52.710;6.502;2022-11-20T00:00:55;30.75;;;14.55;;
52554;SDS011;38455;52.710;6.502;2022-11-20T00:03:21;30.05;;;14.48;;
52554;SDS011;38455;52.710;6.502;2022-11-20T00:05:46;26.88;;;13.32;;
52554;SDS011;38455;52.710;6.502;2022-11-20T00:08:12;30.50;;;15.38;;
52554;SDS011;38455;52.710;6.502;2022-11-20T00:10:38;28.55;;;15.07;;
52554;SDS011;38455;52.710;6.502;2022-11-20T00:13:05;27.52;;;13.20;;
52554;SDS011;38455;52.710;6.502;2022-11-20T00:15:31;24.33;;;13.73;;
52554;SDS011;38455;52.710;6.502;2022-11-20T00:17:57;27.73;;;15.63;;
52554;SDS011;38455;52.710;6.502;2022-11-20T00:20:23;34.45;;;17.52;;
52554;SDS011;38455;52.710;6.502;2022-11-20T00:22:49;32.72;;;16.23;;
52554;SDS011;38455;52.710;6.502;2022-11-20T00:25:15;30.67;;;14.77;;
52554;SDS011;38455;52.710;6.502;2022-11-20T00:27:41;29.17;;;15.25;;
52554;SDS011;38455;52.710;6.502;2022-11-20T00:30:06;31.73;;;14.50;;
52554;SDS011;38455;52.710;6.502;2022-11-20T00:32:32;23.52;;;12.75;;
52554;SDS011;38455;52.710;6.502;2022-11-20T00:34:58;26.58;;;14.27;;
52554;SDS011;38455;52.710;6.502;2022-11-20T00:37:25;25.80;;;13.50;;
52554;SDS011;38455;52.710;6.502;2022-11-20T00:39:51;27.08;;;14.50;;
52554;SDS011;38455;52.710;6.502;2022-11-20T00:42:16;25.38;;;14.30;;
52554;SDS011;38455;52.710;6.502;2022-11-20T00:44:42;36.30;;;15.80;;
52554;SDS011;38455;52.710;6.502;2022-11-20T00:47:08;28.20;;;15.23;;
52554;SDS011;38455;52.710;6.502;2022-11-20T00:49:33;35.13;;;18.42;;
52554;SDS011;38455;52.710;6.502;2022-11-20T00:51:59;36.88;;;18.40;;
52554;SDS011;38455;52.710;6.502;2022-11-20T00:54:24;29.85;;;17.10;;
52554;SDS011;38455;52.710;6.502;2022-11-20T00:56:52;34.75;;;18.45;;
52554;SDS011;38455;52.710;6.502;2022-11-20T00:59:18;37.90;;;20.05;;
52554;SDS011;38455;52.710;6.502;2022-11-20T01:01:44;42.75;;;21.27;;
52554;SDS011;38455;52.710;6.502;2022-11-20T01:04:10;39.55;;;20.42;;
52554;SDS011;38455;52.710;6.502;2022-11-20T01:06:37;37.83;;;20.08;;
52554;SDS011;38455;52.710;6.502;2022-11-20T01:09:09;47.47;;;24.35;;
52554;SDS011;38455;52.710;6.502;2022-11-20T01:11:37;42.70;;;21.08;;
52554;SDS011;38455;52.710;6.502;2022-11-20T01:14:06;41.38;;;21.63;;
52554;SDS011;38455;52.710;6.502;2022-11-20T01:16:36;43.25;;;22.27;;
52554;SDS011;38455;52.710;6.502;2022-11-20T01:19:04;41.00;;;21.98;;
52554;SDS011;38455;52.710;6.502;2022-11-20T01:21:33;38.65;;;21.75;;
52554;SDS011;38455;52.710;6.502;2022-11-20T01:24:00;35.72;;;19.90;;
52554;SDS011;38455;52.710;6.502;2022-11-20T01:26:28;39.08;;;20.23;;
52554;SDS011;38455;52.710;6.502;2022-11-20T01:28:56;37.70;;;19.38;;
52554;SDS011;38455;52.710;6.502;2022-11-20T01:31:31;35.63;;;18.60;;
52554;SDS011;38455;52.710;6.502;2022-11-20T01:34:00;37.75;;;19.52;;
52554;SDS011;38455;52.710;6.502;2022-11-20T01:36:35;35.05;;;18.08;;
52554;SDS011;38455;52.710;6.502;2022-11-20T01:39:03;33.17;;;18.00;;
52554;SDS011;38455;52.710;6.502;2022-11-20T01:41:31;35.63;;;17.48;;
52554;SDS011;38455;52.710;6.502;2022-11-20T01:46:56;34.88;;;17.33;;
52554;SDS011;38455;52.710;6.502;2022-11-20T01:49:24;36.67;;;17.90;;
52554;SDS011;38455;52.710;6.502;2022-11-20T01:52:00;33.95;;;18.60;;
52554;SDS011;38455;52.710;6.502;2022-11-20T01:54:31;36.70;;;18.20;;
52554;SDS011;38455;52.710;6.502;2022-11-20T01:57:01;36.15;;;19.33;;
52554;SDS011;38455;52.710;6.502;2022-11-20T01:59:30;31.42;;;17.50;;
52554;SDS011;38455;52.710;6.502;2022-11-20T02:01:56;32.53;;;17.20;;
52554;SDS011;38455;52.710;6.502;2022-11-20T02:04:22;33.53;;;18.35;;
52554;SDS011;38455;52.710;6.502;2022-11-20T02:06:50;38.38;;;18.88;;
52554;SDS011;38455;52.710;6.502;2022-11-20T02:09:21;38.40;;;18.98;;
52554;SDS011;38455;52.710;6.502;2022-11-20T02:11:47;33.63;;;18.10;;
52554;SDS011;38455;52.710;6.502;2022-11-20T02:14:12;38.10;;;18.48;;
52554;SDS011;38455;52.710;6.502;2022-11-20T02:16:40;34.05;;;17.77;;
52554;SDS011;38455;52.710;6.502;2022-11-20T02:19:17;30.85;;;17.15;;
52554;SDS011;38455;52.710;6.502;2022-11-20T02:22:14;31.67;;;17.63;;
52554;SDS011;38455;52.710;6.502;2022-11-20T02:24:49;31.75;;;17.38;;
52554;SDS011;38455;52.710;6.502;2022-11-20T02:27:16;29.02;;;15.85;;
52554;SDS011;38455;52.710;6.502;2022-11-20T02:29:52;30.17;;;16.42;;
52554;SDS011;38455;52.710;6.502;2022-11-20T02:32:26;29.50;;;15.93;;
52554;SDS011;38455;52.710;6.502;2022-11-20T02:34:56;32.65;;;16.25;;
52554;SDS011;38455;52.710;6.502;2022-11-20T02:37:22;30.33;;;15.23;;
52554;SDS011;38455;52.710;6.502;2022-11-20T02:39:57;28.52;;;14.98;;
52554;SDS011;38455;52.710;6.502;2022-11-20T02:42:23;26.27;;;14.20;;
52554;SDS011;38455;52.710;6.502;2022-11-20T02:44:49;27.65;;;14.43;;
52554;SDS011;38455;52.710;6.502;2022-11-20T02:47:15;28.70;;;15.45;;
52554;SDS011;38455;52.710;6.502;2022-11-20T02:49:40;27.75;;;14.48;;
52554;SDS011;38455;52.710;6.502;2022-11-20T02:52:06;24.65;;;13.88;;
52554;SDS011;38455;52.710;6.502;2022-11-20T02:54:31;32.35;;;15.60;;
52554;SDS011;38455;52.710;6.502;2022-11-20T02:56:57;27.65;;;14.30;;
52554;SDS011;38455;52.710;6.502;2022-11-20T02:59:23;23.25;;;12.77;;
52554;SDS011;38455;52.710;6.502;2022-11-20T03:01:48;25.98;;;14.43;;
52554;SDS011;38455;52.710;6.502;2022-11-20T03:04:14;29.75;;;15.82;;
52554;SDS011;38455;52.710;6.502;2022-11-20T03:06:40;27.95;;;14.35;;
52554;SDS011;38455;52.710;6.502;2022-11-20T03:09:05;28.15;;;14.45;;
52554;SDS011;38455;52.710;6.502;2022-11-20T03:11:31;29.00;;;15.15;;
52554;SDS011;38455;52.710;6.502;2022-11-20T03:13:57;26.27;;;14.20;;
52554;SDS011;38455;52.710;6.502;2022-11-20T03:16:22;25.45;;;14.40;;
52554;SDS011;38455;52.710;6.502;2022-11-20T03:18:48;28.27;;;13.63;;
52554;SDS011;38455;52.710;6.502;2022-11-20T03:21:17;28.77;;;14.48;;
52554;SDS011;38455;52.710;6.502;2022-11-20T03:23:42;27.15;;;14.45;;
52554;SDS011;38455;52.710;6.502;2022-11-20T03:28:35;25.92;;;14.13;;
52554;SDS011;38455;52.710;6.502;2022-11-20T03:31:05;28.83;;;14.65;;
52554;SDS011;38455;52.710;6.502;2022-11-20T03:33:41;29.30;;;14.95;;
52554;SDS011;38455;52.710;6.502;2022-11-20T03:36:08;29.80;;;15.43;;
52554;SDS011;38455;52.710;6.502;2022-11-20T03:38:36;27.73;;;14.32;;
52554;SDS011;38455;52.710;6.502;2022-11-20T03:41:02;29.48;;;14.27;;
52554;SDS011;38455;52.710;6.502;2022-11-20T03:43:33;27.42;;;14.60;;
52554;SDS011;38455;52.710;6.502;2022-11-20T03:45:59;26.08;;;14.32;;
52554;SDS011;38455;52.710;6.502;2022-11-20T03:48:25;23.70;;;13.35;;
52554;SDS011;38455;52.710;6.502;2022-11-20T03:50:52;24.98;;;13.55;;
52554;SDS011;38455;52.710;6.502;2022-11-20T03:53:18;26.25;;;13.13;;
52554;SDS011;38455;52.710;6.502;2022-11-20T03:55:45;25.58;;;13.35;;
52554;SDS011;38455;52.710;6.502;2022-11-20T03:58:15;25.27;;;13.45;;
52554;SDS011;38455;52.710;6.502;2022-11-20T04:00:41;24.75;;;13.18;;
52554;SDS011;38455;52.710;6.502;2022-11-20T04:03:06;26.13;;;13.50;;
52554;SDS011;38455;52.710;6.502;2022-11-20T04:05:33;25.77;;;13.95;;
52554;SDS011;38455;52.710;6.502;2022-11-20T04:07:59;27.20;;;13.93;;
52554;SDS011;38455;52.710;6.502;2022-11-20T04:10:25;28.52;;;15.07;;
52554;SDS011;38455;52.710;6.502;2022-11-20T04:12:50;26.05;;;14.05;;
52554;SDS011;38455;52.710;6.502;2022-11-20T04:15:16;30.83;;;13.43;;
52554;SDS011;38455;52.710;6.502;2022-11-20T04:17:42;25.23;;;14.10;;
52554;SDS011;38455;52.710;6.502;2022-11-20T04:20:07;24.80;;;14.43;;
52554;SDS011;38455;52.710;6.502;2022-11-20T04:22:33;26.83;;;14.00;;
52554;SDS011;38455;52.710;6.502;2022-11-20T04:24:59;25.92;;;14.65;;
52554;SDS011;38455;52.710;6.502;2022-11-20T04:27:24;28.27;;;14.60;;
52554;SDS011;38455;52.710;6.502;2022-11-20T04:29:50;27.50;;;14.05;;
52554;SDS011;38455;52.710;6.502;2022-11-20T04:32:16;24.70;;;13.95;;
52554;SDS011;38455;52.710;6.502;2022-11-20T04:34:41;27.25;;;14.77;;
52554;SDS011;38455;52.710;6.502;2022-11-20T04:37:07;28.33;;;15.02;;
52554;SDS011;38455;52.710;6.502;2022-11-20T04:39:32;24.63;;;13.15;;
52554;SDS011;38455;52.710;6.502;2022-11-20T04:41:58;28.15;;;14.73;;
52554;SDS011;38455;52.710;6.502;2022-11-20T04:44:42;28.92;;;14.10;;
52554;SDS011;38455;52.710;6.502;2022-11-20T04:47:08;26.23;;;15.25;;
52554;SDS011;38455;52.710;6.502;2022-11-20T04:49:33;24.13;;;13.38;;
52554;SDS011;38455;52.710;6.502;2022-11-20T04:51:59;31.63;;;15.27;;
52554;SDS011;38455;52.710;6.502;2022-11-20T04:54:25;27.00;;;15.32;;
52554;SDS011;38455;52.710;6.502;2022-11-20T04:56:50;24.50;;;13.82;;
52554;SDS011;38455;52.710;6.502;2022-11-20T04:59:16;28.45;;;15.98;;
52554;SDS011;38455;52.710;6.502;2022-11-20T05:01:42;27.67;;;15.07;;
52554;SDS011;38455;52.710;6.502;2022-11-20T05:04:07;28.63;;;13.65;;
52554;SDS011;38455;52.710;6.502;2022-11-20T05:06:33;25.27;;;14.15;;
52554;SDS011;38455;52.710;6.502;2022-11-20T05:08:59;26.60;;;13.23;;
52554;SDS011;38455;52.710;6.502;2022-11-20T05:11:26;27.63;;;14.85;;
52554;SDS011;38455;52.710;6.502;2022-11-20T05:13:54;29.50;;;15.10;;
52554;SDS011;38455;52.710;6.502;2022-11-20T05:16:21;27.67;;;14.88;;
52554;SDS011;38455;52.710;6.502;2022-11-20T05:18:48;29.05;;;14.52;;
52554;SDS011;38455;52.710;6.502;2022-11-20T05:21:15;27.08;;;15.18;;
52554;SDS011;38455;52.710;6.502;2022-11-20T05:23:41;26.77;;;15.07;;
52554;SDS011;38455;52.710;6.502;2022-11-20T05:26:11;27.48;;;14.70;;
52554;SDS011;38455;52.710;6.502;2022-11-20T05:28:38;30.95;;;15.13;;
52554;SDS011;38455;52.710;6.502;2022-11-20T05:31:05;25.95;;;13.82;;
52554;SDS011;38455;52.710;6.502;2022-11-20T05:33:33;26.35;;;13.85;;
52554;SDS011;38455;52.710;6.502;2022-11-20T05:35:59;29.15;;;15.52;;
52554;SDS011;38455;52.710;6.502;2022-11-20T05:38:25;29.88;;;15.60;;
52554;SDS011;38455;52.710;6.502;2022-11-20T05:40:51;26.70;;;13.93;;
52554;SDS011;38455;52.710;6.502;2022-11-20T05:43:17;32.38;;;15.45;;
52554;SDS011;38455;52.710;6.502;2022-11-20T05:45:42;27.00;;;15.68;;
52554;SDS011;38455;52.710;6.502;2022-11-20T05:48:16;31.85;;;15.77;;
52554;SDS011;38455;52.710;6.502;2022-11-20T05:50:41;26.35;;;13.88;;
52554;SDS011;38455;52.710;6.502;2022-11-20T05:53:07;33.30;;;16.05;;
52554;SDS011;38455;52.710;6.502;2022-11-20T05:55:32;26.73;;;14.75;;
52554;SDS011;38455;52.710;6.502;2022-11-20T05:57:58;27.77;;;16.15;;
52554;SDS011;38455;52.710;6.502;2022-11-20T06:00:24;32.05;;;15.35;;
52554;SDS011;38455;52.710;6.502;2022-11-20T06:02:49;31.30;;;15.68;;
52554;SDS011;38455;52.710;6.502;2022-11-20T06:05:15;31.10;;;16.40;;
52554;SDS011;38455;52.710;6.502;2022-11-20T06:07:41;27.75;;;14.98;;
52554;SDS011;38455;52.710;6.502;2022-11-20T06:10:06;31.30;;;15.02;;
52554;SDS011;38455;52.710;6.502;2022-11-20T06:12:32;28.50;;;15.40;;
52554;SDS011;38455;52.710;6.502;2022-11-20T06:14:58;27.95;;;15.63;;
52554;SDS011;38455;52.710;6.502;2022-11-20T06:17:24;29.30;;;15.38;;
52554;SDS011;38455;52.710;6.502;2022-11-20T06:19:50;27.95;;;15.23;;
52554;SDS011;38455;52.710;6.502;2022-11-20T06:22:16;31.05;;;15.25;;
52554;SDS011;38455;52.710;6.502;2022-11-20T06:24:41;32.13;;;15.30;;
52554;SDS011;38455;52.710;6.502;2022-11-20T06:27:07;27.10;;;15.02;;
52554;SDS011;38455;52.710;6.502;2022-11-20T06:29:32;29.27;;;14.68;;
52554;SDS011;38455;52.710;6.502;2022-11-20T06:31:58;27.30;;;14.73;;
52554;SDS011;38455;52.710;6.502;2022-11-20T06:34:24;27.10;;;14.73;;
52554;SDS011;38455;52.710;6.502;2022-11-20T06:36:49;25.40;;;13.70;;
52554;SDS011;38455;52.710;6.502;2022-11-20T06:39:15;26.02;;;13.50;;
52554;SDS011;38455;52.710;6.502;2022-11-20T06:41:41;28.17;;;14.88;;
52554;SDS011;38455;52.710;6.502;2022-11-20T06:44:06;24.50;;;13.70;;
52554;SDS011;38455;52.710;6.502;2022-11-20T06:46:32;28.02;;;14.80;;
52554;SDS011;38455;52.710;6.502;2022-11-20T06:48:57;28.30;;;15.02;;
52554;SDS011;38455;52.710;6.502;2022-11-20T06:51:23;28.30;;;15.48;;
52554;SDS011;38455;52.710;6.502;2022-11-20T06:53:49;26.67;;;15.30;;
52554;SDS011;38455;52.710;6.502;2022-11-20T06:56:15;26.30;;;14.30;;
52554;SDS011;38455;52.710;6.502;2022-11-20T06:58:40;22.55;;;11.95;;
52554;SDS011;38455;52.710;6.502;2022-11-20T07:01:08;26.52;;;15.30;;
52554;SDS011;38455;52.710;6.502;2022-11-20T07:03:35;23.58;;;13.73;;
52554;SDS011;38455;52.710;6.502;2022-11-20T07:06:02;25.23;;;13.52;;
52554;SDS011;38455;52.710;6.502;2022-11-20T07:08:28;23.42;;;13.07;;
52554;SDS011;38455;52.710;6.502;2022-11-20T07:11:01;21.90;;;12.40;;
52554;SDS011;38455;52.710;6.502;2022-11-20T07:13:29;21.58;;;12.20;;
52554;SDS011;38455;52.710;6.502;2022-11-20T07:15:59;22.33;;;12.48;;
52554;SDS011;38455;52.710;6.502;2022-11-20T07:18:29;25.27;;;13.65;;
52554;SDS011;38455;52.710;6.502;2022-11-20T07:20:55;23.40;;;13.30;;
52554;SDS011;38455;52.710;6.502;2022-11-20T07:23:21;24.73;;;12.70;;
52554;SDS011;38455;52.710;6.502;2022-11-20T07:25:47;25.77;;;13.70;;
52554;SDS011;38455;52.710;6.502;2022-11-20T07:28:12;26.52;;;13.40;;
52554;SDS011;38455;52.710;6.502;2022-11-20T07:30:38;23.75;;;12.07;;
52554;SDS011;38455;52.710;6.502;2022-11-20T07:33:04;27.65;;;12.57;;
52554;SDS011;38455;52.710;6.502;2022-11-20T07:35:30;26.08;;;12.50;;
52554;SDS011;38455;52.710;6.502;2022-11-20T07:37:56;24.67;;;13.82;;
52554;SDS011;38455;52.710;6.502;2022-11-20T07:40:21;24.83;;;13.77;;
52554;SDS011;38455;52.710;6.502;2022-11-20T07:42:47;23.67;;;12.63;;
52554;SDS011;38455;52.710;6.502;2022-11-20T07:45:18;24.08;;;13.65;;
52554;SDS011;38455;52.710;6.502;2022-11-20T07:47:45;28.63;;;13.80;;
52554;SDS011;38455;52.710;6.502;2022-11-20T07:50:10;23.48;;;12.65;;
52554;SDS011;38455;52.710;6.502;2022-11-20T07:52:37;24.85;;;13.20;;
52554;SDS011;38455;52.710;6.502;2022-11-20T07:55:02;22.55;;;13.13;;
52554;SDS011;38455;52.710;6.502;2022-11-20T07:57:28;21.05;;;12.73;;
52554;SDS011;38455;52.710;6.502;2022-11-20T07:59:54;25.20;;;13.50;;
52554;SDS011;38455;52.710;6.502;2022-11-20T08:02:20;23.42;;;13.25;;
52554;SDS011;38455;52.710;6.502;2022-11-20T08:04:45;26.30;;;13.70;;
52554;SDS011;38455;52.710;6.502;2022-11-20T08:07:11;23.85;;;13.27;;
52554;SDS011;38455;52.710;6.502;2022-11-20T08:09:37;21.52;;;11.75;;
52554;SDS011;38455;52.710;6.502;2022-11-20T08:12:02;26.30;;;14.68;;
52554;SDS011;38455;52.710;6.502;2022-11-20T08:14:47;25.48;;;11.98;;
52554;SDS011;38455;52.710;6.502;2022-11-20T08:17:12;22.58;;;12.73;;
52554;SDS011;38455;52.710;6.502;2022-11-20T08:19:38;22.15;;;12.80;;
52554;SDS011;38455;52.710;6.502;2022-11-20T08:22:03;24.48;;;13.98;;
52554;SDS011;38455;52.710;6.502;2022-11-20T08:24:29;24.52;;;14.27;;
52554;SDS011;38455;52.710;6.502;2022-11-20T08:26:57;24.70;;;13.05;;
52554;SDS011;38455;52.710;6.502;2022-11-20T08:29:24;21.35;;;13.82;;
52554;SDS011;38455;52.710;6.502;2022-11-20T08:31:51;23.05;;;13.98;;
52554;SDS011;38455;52.710;6.502;2022-11-20T08:34:16;23.67;;;13.60;;
52554;SDS011;38455;52.710;6.502;2022-11-20T08:36:42;27.13;;;14.98;;
52554;SDS011;38455;52.710;6.502;2022-11-20T08:39:08;27.77;;;13.70;;
52554;SDS011;38455;52.710;6.502;2022-11-20T08:41:37;23.23;;;13.25;;
52554;SDS011;38455;52.710;6.502;2022-11-20T08:44:03;23.08;;;13.90;;
52554;SDS011;38455;52.710;6.502;2022-11-20T08:46:37;21.70;;;12.98;;
52554;SDS011;38455;52.710;6.502;2022-11-20T08:49:08;22.10;;;12.57;;
52554;SDS011;38455;52.710;6.502;2022-11-20T08:51:36;24.02;;;13.25;;
52554;SDS011;38455;52.710;6.502;2022-11-20T08:54:03;21.98;;;13.25;;
52554;SDS011;38455;52.710;6.502;2022-11-20T08:56:29;21.50;;;12.63;;
52554;SDS011;38455;52.710;6.502;2022-11-20T08:58:55;24.00;;;12.63;;
52554;SDS011;38455;52.710;6.502;2022-11-20T09:01:21;22.73;;;12.85;;
52554;SDS011;38455;52.710;6.502;2022-11-20T09:03:48;23.52;;;13.65;;
52554;SDS011;38455;52.710;6.502;2022-11-20T09:06:14;21.60;;;13.02;;
52554;SDS011;38455;52.710;6.502;2022-11-20T09:08:40;22.88;;;12.88;;
52554;SDS011;38455;52.710;6.502;2022-11-20T09:11:06;22.95;;;12.68;;
52554;SDS011;38455;52.710;6.502;2022-11-20T09:13:33;23.00;;;12.10;;
52554;SDS011;38455;52.710;6.502;2022-11-20T09:16:01;22.83;;;12.88;;
52554;SDS011;38455;52.710;6.502;2022-11-20T09:18:30;27.65;;;14.85;;
52554;SDS011;38455;52.710;6.502;2022-11-20T09:21:01;22.70;;;12.63;;
52554;SDS011;38455;52.710;6.502;2022-11-20T09:23:30;24.10;;;14.43;;
52554;SDS011;38455;52.710;6.502;2022-11-20T09:25:58;20.98;;;13.55;;
52554;SDS011;38455;52.710;6.502;2022-11-20T09:28:30;22.27;;;13.55;;
52554;SDS011;38455;52.710;6.502;2022-11-20T09:30:56;24.38;;;13.85;;
52554;SDS011;38455;52.710;6.502;2022-11-20T09:33:22;29.77;;;15.43;;
52554;SDS011;38455;52.710;6.502;2022-11-20T09:35:49;22.67;;;12.70;;
52554;SDS011;38455;52.710;6.502;2022-11-20T09:38:16;24.38;;;14.02;;
52554;SDS011;38455;52.710;6.502;2022-11-20T09:40:58;23.00;;;13.15;;
52554;SDS011;38455;52.710;6.502;2022-11-20T09:46:17;20.85;;;12.63;;
52554;SDS011;38455;52.710;6.502;2022-11-20T09:51:41;23.65;;;13.63;;
52554;SDS011;38455;52.710;6.502;2022-11-20T09:54:29;27.98;;;13.40;;
52554;SDS011;38455;52.710;6.502;2022-11-20T09:57:05;22.42;;;12.48;;
52554;SDS011;38455;52.710;6.502;2022-11-20T10:02:18;21.92;;;12.68;;
52554;SDS011;38455;52.710;6.502;2022-11-20T10:04:52;23.58;;;13.20;;
52554;SDS011;38455;52.710;6.502;2022-11-20T10:10:04;19.98;;;10.90;;
52554;SDS011;38455;52.710;6.502;2022-11-20T10:12:50;19.10;;;11.20;;
52554;SDS011;38455;52.710;6.502;2022-11-20T10:20:46;16.90;;;10.38;;
52554;SDS011;38455;52.710;6.502;2022-11-20T10:26:22;12.50;;;8.27;;
52554;SDS011;38455;52.710;6.502;2022-11-20T10:31:39;13.48;;;9.05;;
52554;SDS011;38455;52.710;6.502;2022-11-20T10:34:12;15.75;;;8.93;;
52554;SDS011;38455;52.710;6.502;2022-11-20T10:36:48;12.95;;;8.27;;
52554;SDS011;38455;52.710;6.502;2022-11-20T10:42:26;11.27;;;7.60;;
52554;SDS011;38455;52.710;6.502;2022-11-20T10:45:02;13.32;;;9.30;;
52554;SDS011;38455;52.710;6.502;2022-11-20T10:47:39;10.88;;;8.20;;
52554;SDS011;38455;52.710;6.502;2022-11-20T10:50:09;14.63;;;9.95;;
52554;SDS011;38455;52.710;6.502;2022-11-20T11:01:27;12.10;;;7.55;;
52554;SDS011;38455;52.710;6.502;2022-11-20T11:03:53;13.75;;;8.45;;
52554;SDS011;38455;52.710;6.502;2022-11-20T11:06:32;14.07;;;8.70;;
52554;SDS011;38455;52.710;6.502;2022-11-20T11:09:01;15.38;;;9.23;;
52554;SDS011;38455;52.710;6.502;2022-11-20T11:11:49;10.63;;;7.95;;
52554;SDS011;38455;52.710;6.502;2022-11-20T11:14:15;13.98;;;9.25;;
52554;SDS011;38455;52.710;6.502;2022-11-20T11:16:54;13.38;;;8.65;;
52554;SDS011;38455;52.710;6.502;2022-11-20T11:19:21;14.52;;;9.30;;
52554;SDS011;38455;52.710;6.502;2022-11-20T11:21:49;14.98;;;9.68;;
52554;SDS011;38455;52.710;6.502;2022-11-20T11:27:32;14.90;;;9.35;;
52554;SDS011;38455;52.710;6.502;2022-11-20T11:29:42;14.75;;;9.45;;
52554;SDS011;38455;52.710;6.502;2022-11-20T11:32:11;12.63;;;8.50;;
52554;SDS011;38455;52.710;6.502;2022-11-20T11:34:38;19.65;;;9.68;;
52554;SDS011;38455;52.710;6.502;2022-11-20T11:37:04;15.52;;;9.10;;
52554;SDS011;38455;52.710;6.502;2022-11-20T11:39:37;18.63;;;11.90;;
52554;SDS011;38455;52.710;6.502;2022-11-20T11:42:07;15.90;;;9.38;;
52554;SDS011;38455;52.710;6.502;2022-11-20T11:44:43;14.50;;;9.27;;
52554;SDS011;38455;52.710;6.502;2022-11-20T11:47:32;16.40;;;9.73;;
52554;SDS011;38455;52.710;6.502;2022-11-20T11:55:07;16.13;;;9.82;;
52554;SDS011;38455;52.710;6.502;2022-11-20T12:00:14;15.65;;;10.38;;
52554;SDS011;38455;52.710;6.502;2022-11-20T12:07:46;15.07;;;9.68;;
52554;SDS011;38455;52.710;6.502;2022-11-20T12:13:54;16.38;;;10.35;;
52554;SDS011;38455;52.710;6.502;2022-11-20T12:16:14;16.10;;;10.57;;
52554;SDS011;38455;52.710;6.502;2022-11-20T12:18:46;18.38;;;10.20;;
52554;SDS011;38455;52.710;6.502;2022-11-20T12:32:26;15.00;;;9.75;;
52554;SDS011;38455;52.710;6.502;2022-11-20T12:43:25;16.60;;;10.23;;
52554;SDS011;38455;52.710;6.502;2022-11-20T12:48:52;17.88;;;10.57;;
52554;SDS011;38455;52.710;6.502;2022-11-20T12:54:11;22.83;;;13.25;;
52554;SDS011;38455;52.710;6.502;2022-11-20T12:56:52;17.55;;;11.68;;
52554;SDS011;38455;52.710;6.502;2022-11-20T13:00:14;15.32;;;10.13;;
52554;SDS011;38455;52.710;6.502;2022-11-20T13:19:54;17.83;;;9.82;;
52554;SDS011;38455;52.710;6.502;2022-11-20T13:22:24;13.40;;;9.02;;
52554;SDS011;38455;52.710;6.502;2022-11-20T13:24:55;15.43;;;9.93;;
52554;SDS011;38455;52.710;6.502;2022-11-20T13:27:21;18.38;;;10.80;;
52554;SDS011;38455;52.710;6.502;2022-11-20T13:32:49;14.60;;;9.38;;
52554;SDS011;38455;52.710;6.502;2022-11-20T13:35:23;18.27;;;10.10;;
52554;SDS011;38455;52.710;6.502;2022-11-20T13:38:10;15.43;;;10.13;;
52554;SDS011;38455;52.710;6.502;2022-11-20T13:40:39;15.90;;;10.05;;
52554;SDS011;38455;52.710;6.502;2022-11-20T13:46:09;15.98;;;10.35;;
52554;SDS011;38455;52.710;6.502;2022-11-20T13:48:42;17.77;;;10.80;;
52554;SDS011;38455;52.710;6.502;2022-11-20T13:54:24;18.23;;;11.40;;
52554;SDS011;38455;52.710;6.502;2022-11-20T14:02:20;18.95;;;10.68;;
52554;SDS011;38455;52.710;6.502;2022-11-20T14:04:48;16.15;;;10.23;;
52554;SDS011;38455;52.710;6.502;2022-11-20T14:07:16;17.90;;;10.75;;
52554;SDS011;38455;52.710;6.502;2022-11-20T14:09:52;17.92;;;11.13;;
52554;SDS011;38455;52.710;6.502;2022-11-20T14:12:21;20.10;;;11.38;;
52554;SDS011;38455;52.710;6.502;2022-11-20T14:14:52;15.88;;;10.80;;
52554;SDS011;38455;52.710;6.502;2022-11-20T14:17:20;14.65;;;9.35;;
52554;SDS011;38455;52.710;6.502;2022-11-20T14:19:48;17.02;;;10.35;;
52554;SDS011;38455;52.710;6.502;2022-11-20T14:22:20;18.17;;;10.70;;
52554;SDS011;38455;52.710;6.502;2022-11-20T14:25:06;19.23;;;11.55;;
52554;SDS011;38455;52.710;6.502;2022-11-20T14:27:43;15.82;;;10.13;;
52554;SDS011;38455;52.710;6.502;2022-11-20T14:30:44;16.80;;;10.20;;
52554;SDS011;38455;52.710;6.502;2022-11-20T14:33:13;19.13;;;10.32;;
52554;SDS011;38455;52.710;6.502;2022-11-20T14:35:49;17.42;;;10.15;;
52554;SDS011;38455;52.710;6.502;2022-11-20T14:38:29;15.10;;;9.95;;
52554;SDS011;38455;52.710;6.502;2022-11-20T14:41:16;19.92;;;11.60;;
52554;SDS011;38455;52.710;6.502;2022-11-20T14:43:56;15.00;;;9.70;;
52554;SDS011;38455;52.710;6.502;2022-11-20T14:46:23;17.55;;;10.75;;
52554;SDS011;38455;52.710;6.502;2022-11-20T14:48:50;16.90;;;9.98;;
52554;SDS011;38455;52.710;6.502;2022-11-20T14:51:25;16.40;;;10.90;;
52554;SDS011;38455;52.710;6.502;2022-11-20T14:56:39;16.98;;;11.15;;
52554;SDS011;38455;52.710;6.502;2022-11-20T14:59:06;16.08;;;10.63;;
52554;SDS011;38455;52.710;6.502;2022-11-20T15:01:33;17.33;;;11.55;;
52554;SDS011;38455;52.710;6.502;2022-11-20T15:04:00;17.35;;;10.85;;
52554;SDS011;38455;52.710;6.502;2022-11-20T15:06:29;16.58;;;11.00;;
52554;SDS011;38455;52.710;6.502;2022-11-20T15:08:56;19.63;;;12.23;;
52554;SDS011;38455;52.710;6.502;2022-11-20T15:11:27;20.63;;;12.10;;
52554;SDS011;38455;52.710;6.502;2022-11-20T15:13:57;20.23;;;11.87;;
52554;SDS011;38455;52.710;6.502;2022-11-20T15:16:27;21.73;;;11.90;;
52554;SDS011;38455;52.710;6.502;2022-11-20T15:18:53;18.52;;;11.68;;
52554;SDS011;38455;52.710;6.502;2022-11-20T15:21:20;19.02;;;11.25;;
52554;SDS011;38455;52.710;6.502;2022-11-20T15:23:46;18.45;;;12.10;;
52554;SDS011;38455;52.710;6.502;2022-11-20T15:26:14;20.00;;;11.15;;
52554;SDS011;38455;52.710;6.502;2022-11-20T15:31:16;18.50;;;11.75;;
52554;SDS011;38455;52.710;6.502;2022-11-20T15:33:44;20.15;;;11.80;;
52554;SDS011;38455;52.710;6.502;2022-11-20T15:36:10;17.23;;;11.13;;
52554;SDS011;38455;52.710;6.502;2022-11-20T15:38:36;16.27;;;10.50;;
52554;SDS011;38455;52.710;6.502;2022-11-20T15:41:02;16.92;;;10.15;;
52554;SDS011;38455;52.710;6.502;2022-11-20T15:43:28;16.98;;;10.20;;
52554;SDS011;38455;52.710;6.502;2022-11-20T15:45:55;17.75;;;11.15;;
52554;SDS011;38455;52.710;6.502;2022-11-20T15:48:29;18.00;;;11.57;;
52554;SDS011;38455;52.710;6.502;2022-11-20T15:53:28;18.90;;;11.75;;
52554;SDS011;38455;52.710;6.502;2022-11-20T15:55:54;20.83;;;11.98;;
52554;SDS011;38455;52.710;6.502;2022-11-20T15:58:19;23.73;;;14.57;;
52554;SDS011;38455;52.710;6.502;2022-11-20T16:00:45;22.23;;;13.85;;
52554;SDS011;38455;52.710;6.502;2022-11-20T16:03:11;23.08;;;14.07;;
52554;SDS011;38455;52.710;6.502;2022-11-20T16:05:38;22.30;;;13.70;;
52554;SDS011;38455;52.710;6.502;2022-11-20T16:08:04;21.88;;;13.65;;
52554;SDS011;38455;52.710;6.502;2022-11-20T16:10:30;24.83;;;14.40;;
52554;SDS011;38455;52.710;6.502;2022-11-20T16:12:55;21.92;;;13.98;;
52554;SDS011;38455;52.710;6.502;2022-11-20T16:15:40;22.60;;;13.65;;
52554;SDS011;38455;52.710;6.502;2022-11-20T16:18:13;22.00;;;13.63;;
52554;SDS011;38455;52.710;6.502;2022-11-20T16:20:41;21.35;;;13.80;;
52554;SDS011;38455;52.710;6.502;2022-11-20T16:23:07;26.02;;;14.63;;
52554;SDS011;38455;52.710;6.502;2022-11-20T16:25:33;24.67;;;14.30;;
52554;SDS011;38455;52.710;6.502;2022-11-20T16:27:58;25.98;;;15.35;;
52554;SDS011;38455;52.710;6.502;2022-11-20T16:30:24;26.63;;;16.20;;
52554;SDS011;38455;52.710;6.502;2022-11-20T16:32:50;28.27;;;16.15;;
52554;SDS011;38455;52.710;6.502;2022-11-20T16:35:16;29.50;;;16.67;;